createdAt,value
2023-05-14T00:00:48.812Z,0.00
2023-05-14T00:01:48.992Z,0.00
2023-05-14T00:02:49.213Z,0.00
2023-05-14T00:03:49.335Z,0.00
2023-05-14T00:04:49.380Z,0.00
2023-05-14T00:05:49.455Z,0.00
2023-05-14T00:06:49.619Z,0.00
2023-05-14T00:07:49.805Z,0.00
2023-05-14T00:08:49.885Z,0.00
2023-05-14T00:09:50.000Z,0.00
2023-05-14T00:10:50.170Z,0.00
2023-05-14T00:11:50.290Z,0.00
2023-05-14T00:12:50.502Z,0.00
2023-05-14T00:13:50.445Z,0.00
2023-05-14T00:14:50.559Z,0.00
2023-05-14T00:15:50.840Z,0.00
2023-05-14T00:16:50.978Z,0.00
2023-05-14T00:17:51.003Z,0.00
2023-05-14T00:18:51.118Z,0.00
2023-05-14T00:19:51.222Z,0.00
2023-05-14T00:20:51.349Z,0.00
2023-05-14T00:21:51.612Z,0.00
2023-05-14T00:22:51.617Z,0.00
2023-05-14T00:23:51.785Z,0.00
2023-05-14T00:24:51.838Z,0.00
2023-05-14T00:25:51.985Z,0.00
2023-05-14T00:26:52.179Z,0.00
2023-05-14T00:27:52.306Z,0.00
2023-05-14T00:28:52.492Z,0.00
2023-05-14T00:29:52.558Z,0.00
2023-05-14T00:30:52.716Z,0.00
2023-05-14T00:31:53.051Z,0.00
2023-05-14T00:32:53.065Z,0.00
2023-05-14T00:33:53.105Z,0.00
2023-05-14T00:34:53.164Z,0.00
2023-05-14T00:35:53.297Z,0.00
2023-05-14T00:36:53.448Z,0.00
2023-05-14T00:37:53.573Z,0.00
2023-05-14T00:38:53.809Z,0.00
2023-05-14T00:39:53.929Z,0.00
2023-05-14T00:40:54.029Z,0.00
2023-05-14T00:41:54.136Z,0.00
2023-05-14T00:42:54.266Z,0.00
2023-05-14T00:43:54.422Z,0.00
2023-05-14T00:44:54.560Z,0.00
2023-05-14T00:45:54.627Z,0.00
2023-05-14T00:46:54.873Z,0.00
2023-05-14T00:47:54.959Z,0.00
2023-05-14T00:48:55.038Z,0.00
2023-05-14T00:49:55.186Z,0.00
2023-05-14T00:50:55.284Z,0.00
2023-05-14T00:51:55.385Z,0.00
2023-05-14T00:52:55.574Z,0.00
2023-05-14T00:53:55.717Z,0.00
2023-05-14T00:54:55.851Z,0.00
2023-05-14T00:55:55.898Z,0.00
2023-05-14T00:56:56.041Z,0.00
2023-05-14T00:57:56.171Z,0.00
2023-05-14T00:58:56.329Z,0.00
2023-05-14T00:59:56.486Z,0.00
2023-05-14T01:00:56.760Z,0.00
2023-05-14T01:01:56.762Z,0.00
2023-05-14T01:02:56.950Z,0.00
2023-05-14T01:03:57.096Z,0.00
2023-05-14T01:04:57.153Z,0.00
2023-05-14T01:05:57.341Z,0.00
2023-05-14T01:06:57.412Z,0.00
2023-05-14T01:07:57.612Z,0.00
2023-05-14T01:08:57.671Z,0.00
2023-05-14T01:09:57.873Z,0.00
2023-05-14T01:10:57.925Z,0.00
2023-05-14T01:11:58.014Z,0.00
2023-05-14T01:12:58.249Z,0.00
2023-05-14T01:13:58.297Z,0.00
2023-05-14T01:14:58.551Z,0.00
2023-05-14T01:15:58.668Z,0.00
2023-05-14T01:16:58.758Z,0.00
2023-05-14T01:17:58.896Z,0.00
2023-05-14T01:18:58.941Z,0.00
2023-05-14T01:19:59.047Z,0.00
2023-05-14T01:20:59.160Z,0.00
2023-05-14T01:21:59.359Z,0.00
2023-05-14T01:22:59.524Z,0.00
2023-05-14T01:23:59.578Z,0.00
2023-05-14T01:24:59.665Z,0.00
2023-05-14T01:25:59.870Z,0.00
2023-05-14T01:26:59.930Z,0.00
2023-05-14T01:28:00.100Z,0.00
2023-05-14T01:29:00.264Z,0.00
2023-05-14T01:30:00.391Z,0.00
2023-05-14T01:31:00.513Z,0.00
2023-05-14T01:32:00.721Z,0.00
2023-05-14T01:33:00.792Z,0.00
2023-05-14T01:34:00.964Z,0.00
2023-05-14T01:35:01.096Z,0.00
2023-05-14T01:36:01.270Z,0.00
2023-05-14T01:37:01.301Z,0.00
2023-05-14T01:38:01.447Z,0.00
2023-05-14T01:39:01.639Z,0.00
2023-05-14T01:40:01.825Z,0.00
2023-05-14T01:41:01.915Z,0.00
2023-05-14T01:42:02.051Z,0.00
2023-05-14T01:43:02.282Z,0.00
2023-05-14T01:44:02.247Z,0.00
2023-05-14T01:45:02.409Z,0.00
2023-05-14T01:46:02.711Z,0.00
2023-05-14T01:47:02.762Z,0.00
2023-05-14T01:48:02.826Z,0.00
2023-05-14T01:49:02.886Z,0.00
2023-05-14T01:50:03.002Z,0.00
2023-05-14T01:51:03.153Z,0.00
2023-05-14T01:52:03.228Z,0.00
2023-05-14T01:53:03.426Z,0.00
2023-05-14T01:54:03.545Z,0.00
2023-05-14T01:55:03.744Z,0.00
2023-05-14T01:56:03.790Z,0.00
2023-05-14T01:57:03.916Z,0.00
2023-05-14T01:58:04.077Z,0.00
2023-05-14T01:59:04.204Z,0.00
2023-05-14T02:00:04.295Z,0.00
2023-05-14T02:01:04.508Z,0.00
2023-05-14T02:02:04.612Z,0.00
2023-05-14T02:03:04.759Z,0.00
2023-05-14T02:04:04.889Z,0.00
2023-05-14T02:05:06.946Z,0.00
2023-05-14T02:06:05.089Z,0.00
2023-05-14T02:07:05.236Z,0.00
2023-05-14T02:08:05.339Z,0.00
2023-05-14T02:09:05.441Z,0.00
2023-05-14T02:10:05.504Z,0.00
2023-05-14T02:11:05.668Z,0.00
2023-05-14T02:12:05.787Z,0.00
2023-05-14T02:13:05.920Z,0.00
2023-05-14T02:14:06.144Z,0.00
2023-05-14T02:15:06.199Z,0.00
2023-05-14T02:16:06.399Z,0.00
2023-05-14T02:17:06.439Z,0.00
2023-05-14T02:18:06.598Z,0.00
2023-05-14T02:19:06.680Z,0.00
2023-05-14T02:20:06.917Z,0.00
2023-05-14T02:21:06.920Z,0.00
2023-05-14T02:22:07.148Z,0.00
2023-05-14T02:23:07.208Z,0.00
2023-05-14T02:24:07.354Z,0.00
2023-05-14T02:25:07.537Z,0.00
2023-05-14T02:26:07.999Z,0.00
2023-05-14T02:27:07.687Z,0.00
2023-05-14T02:28:07.826Z,0.00
2023-05-14T02:29:07.989Z,0.00
2023-05-14T02:30:08.113Z,0.00
2023-05-14T02:31:08.355Z,0.00
2023-05-14T02:32:08.429Z,0.00
2023-05-14T02:33:08.577Z,0.00
2023-05-14T02:34:08.660Z,0.00
2023-05-14T02:35:08.762Z,0.00
2023-05-14T02:36:08.915Z,0.00
2023-05-14T02:37:09.045Z,0.00
2023-05-14T02:38:09.186Z,0.00
2023-05-14T02:39:09.393Z,0.00
2023-05-14T02:40:09.441Z,0.00
2023-05-14T02:41:09.500Z,0.00
2023-05-14T02:42:09.712Z,0.00
2023-05-14T02:43:09.806Z,0.00
2023-05-14T02:44:09.909Z,0.00
2023-05-14T02:45:10.058Z,0.00
2023-05-14T02:46:10.160Z,0.00
2023-05-14T02:47:10.414Z,0.00
2023-05-14T02:48:10.470Z,0.00
2023-05-14T02:49:10.550Z,0.00
2023-05-14T02:50:10.747Z,0.00
2023-05-14T02:51:10.748Z,0.00
2023-05-14T02:52:11.006Z,0.00
2023-05-14T02:53:11.111Z,0.00
2023-05-14T02:54:11.238Z,0.00
2023-05-14T02:55:11.291Z,0.00
2023-05-14T02:56:11.369Z,0.00
2023-05-14T02:57:11.538Z,0.00
2023-05-14T02:58:11.737Z,0.00
2023-05-14T02:59:11.828Z,0.00
2023-05-14T03:00:11.923Z,0.00
2023-05-14T03:01:12.109Z,0.00
2023-05-14T03:02:12.712Z,0.00
2023-05-14T03:03:12.269Z,0.00
2023-05-14T03:04:12.392Z,0.00
2023-05-14T03:05:12.602Z,0.00
2023-05-14T03:06:12.756Z,0.00
2023-05-14T03:07:12.791Z,0.00
2023-05-14T03:08:12.962Z,0.00
2023-05-14T03:09:13.011Z,4.00
2023-05-14T03:10:13.223Z,4.00
2023-05-14T03:11:13.274Z,4.00
2023-05-14T03:12:13.412Z,4.00
2023-05-14T03:13:13.606Z,4.00
2023-05-14T03:14:13.766Z,4.00
2023-05-14T03:15:13.917Z,0.00
2023-05-14T03:16:14.016Z,4.00
2023-05-14T03:17:14.129Z,4.00
2023-05-14T03:18:14.256Z,4.00
2023-05-14T03:19:14.492Z,4.00
2023-05-14T03:20:14.571Z,4.00
2023-05-14T03:21:14.699Z,4.00
2023-05-14T03:22:14.914Z,8.00
2023-05-14T03:23:14.913Z,4.00
2023-05-14T03:24:15.005Z,8.00
2023-05-14T03:25:15.130Z,8.00
2023-05-14T03:26:15.246Z,8.00
2023-05-14T03:27:15.368Z,8.00
2023-05-14T03:28:15.512Z,8.00
2023-05-14T03:29:15.627Z,12.00
2023-05-14T03:30:15.813Z,16.00
2023-05-14T03:31:15.925Z,16.00
2023-05-14T03:32:16.017Z,16.00
2023-05-14T03:33:16.190Z,20.00
2023-05-14T03:34:16.261Z,24.00
2023-05-14T03:35:16.451Z,28.00
2023-05-14T03:36:16.632Z,28.00
2023-05-14T03:37:16.653Z,36.00
2023-05-14T03:38:16.833Z,40.00
2023-05-14T03:39:17.061Z,40.00
2023-05-14T03:40:17.029Z,44.00
2023-05-14T03:41:17.149Z,52.00
2023-05-14T03:42:17.486Z,56.00
2023-05-14T03:43:17.367Z,68.00
2023-05-14T03:44:17.533Z,68.00
2023-05-14T03:45:17.668Z,76.00
2023-05-14T03:46:17.842Z,84.00
2023-05-14T03:47:17.983Z,88.00
2023-05-14T03:48:18.136Z,104.00
2023-05-14T03:49:18.282Z,112.00
2023-05-14T03:50:18.421Z,124.00
2023-05-14T03:51:18.553Z,128.00
2023-05-14T03:52:18.629Z,140.00
2023-05-14T03:53:18.881Z,152.00
2023-05-14T03:54:18.872Z,164.00
2023-05-14T03:55:19.064Z,176.00
2023-05-14T03:56:19.122Z,192.00
2023-05-14T03:57:19.288Z,208.00
2023-05-14T03:58:19.445Z,220.00
2023-05-14T03:59:19.570Z,244.00
2023-05-14T04:00:19.685Z,260.00
2023-05-14T04:01:19.783Z,280.00
2023-05-14T04:02:19.890Z,300.00
2023-05-14T04:03:20.136Z,316.00
2023-05-14T04:04:20.201Z,340.00
2023-05-14T04:05:20.222Z,356.00
2023-05-14T04:06:20.325Z,376.00
2023-05-14T04:07:20.545Z,404.00
2023-05-14T04:08:20.655Z,436.00
2023-05-14T04:09:20.774Z,428.00
2023-05-14T04:10:20.958Z,500.00
2023-05-14T04:11:20.975Z,468.00
2023-05-14T04:12:21.113Z,552.00
2023-05-14T04:13:21.284Z,524.00
2023-05-14T04:14:21.402Z,596.00
2023-05-14T04:15:22.037Z,568.00
2023-05-14T04:16:21.671Z,624.00
2023-05-14T04:17:21.775Z,680.00
2023-05-14T04:18:21.945Z,628.00
2023-05-14T04:19:22.425Z,684.00
2023-05-14T04:20:22.314Z,708.00
2023-05-14T04:21:22.307Z,756.00
2023-05-14T04:22:22.468Z,748.00
2023-05-14T04:23:22.590Z,764.00
2023-05-14T04:24:22.768Z,852.00
2023-05-14T04:25:22.892Z,912.00
2023-05-14T04:26:22.972Z,824.00
2023-05-14T04:27:23.096Z,888.00
2023-05-14T04:28:23.205Z,964.00
2023-05-14T04:29:23.368Z,972.00
2023-05-14T04:30:23.592Z,976.00
2023-05-14T04:31:23.847Z,1012.00
2023-05-14T04:32:23.790Z,1028.00
2023-05-14T04:33:23.870Z,1072.00
2023-05-14T04:34:24.085Z,1108.00
2023-05-14T04:35:25.205Z,1120.00
2023-05-14T04:36:24.378Z,1144.00
2023-05-14T04:37:24.366Z,1232.00
2023-05-14T04:38:24.505Z,1296.00
2023-05-14T04:39:24.664Z,1272.00
2023-05-14T04:40:24.982Z,1236.00
2023-05-14T04:41:24.933Z,1284.00
2023-05-14T04:42:25.160Z,1292.00
2023-05-14T04:43:25.152Z,1424.00
2023-05-14T04:44:25.295Z,1420.00
2023-05-14T04:45:25.370Z,1476.00
2023-05-14T04:46:25.598Z,1052.00
2023-05-14T04:47:25.698Z,1520.00
2023-05-14T04:48:25.878Z,1572.00
2023-05-14T04:49:25.968Z,1584.00
2023-05-14T04:50:26.314Z,1536.00
2023-05-14T04:51:26.166Z,1544.00
2023-05-14T04:52:26.284Z,1544.00
2023-05-14T04:53:26.418Z,1540.00
2023-05-14T04:54:27.118Z,1560.00
2023-05-14T04:55:26.700Z,1696.00
2023-05-14T04:56:26.743Z,1712.00
2023-05-14T04:57:26.953Z,1808.00
2023-05-14T04:58:27.017Z,1812.00
2023-05-14T04:59:27.124Z,1852.00
2023-05-14T05:00:27.471Z,1876.00
2023-05-14T05:01:27.525Z,2008.00
2023-05-14T05:02:27.570Z,2032.00
2023-05-14T05:03:27.748Z,1916.00
2023-05-14T05:04:27.800Z,1988.00
2023-05-14T05:05:27.939Z,2156.00
2023-05-14T05:06:28.027Z,2168.00
2023-05-14T05:07:28.165Z,2188.00
2023-05-14T05:08:28.359Z,2152.00
2023-05-14T05:09:28.437Z,2188.00
2023-05-14T05:10:28.661Z,2220.00
2023-05-14T05:11:28.709Z,2252.00
2023-05-14T05:12:28.823Z,2272.00
2023-05-14T05:13:29.139Z,2256.00
2023-05-14T05:14:29.038Z,2332.00
2023-05-14T05:15:29.210Z,2328.00
2023-05-14T05:16:29.361Z,2368.00
2023-05-14T05:17:29.487Z,2332.00
2023-05-14T05:18:29.601Z,2296.00
2023-05-14T05:19:42.477Z,2208.00
2023-05-14T05:20:30.892Z,2128.00
2023-05-14T05:21:30.006Z,2060.00
2023-05-14T05:22:30.246Z,1948.00
2023-05-14T05:23:30.247Z,2108.00
2023-05-14T05:24:30.453Z,2232.00
2023-05-14T05:25:30.541Z,2380.00
2023-05-14T05:26:30.818Z,2412.00
2023-05-14T05:27:30.770Z,2456.00
2023-05-14T05:28:30.966Z,2484.00
2023-05-14T05:29:31.124Z,2656.00
2023-05-14T05:30:31.395Z,2724.00
2023-05-14T05:31:31.403Z,2720.00
2023-05-14T05:32:31.669Z,2752.00
2023-05-14T05:33:31.704Z,2840.00
2023-05-14T05:34:31.625Z,2956.00
2023-05-14T05:35:31.801Z,3040.00
2023-05-14T05:36:31.959Z,3100.00
2023-05-14T05:37:32.029Z,3152.00
2023-05-14T05:38:32.166Z,3148.00
2023-05-14T05:39:32.232Z,3232.00
2023-05-14T05:40:32.343Z,3216.00
2023-05-14T05:41:32.438Z,3280.00
2023-05-14T05:42:32.725Z,3492.00
2023-05-14T05:43:32.754Z,3408.00
2023-05-14T05:44:32.878Z,3756.00
2023-05-14T05:45:32.946Z,3876.00
2023-05-14T05:46:33.128Z,3808.00
2023-05-14T05:47:33.180Z,4044.00
2023-05-14T05:48:33.391Z,4000.00
2023-05-14T05:49:33.456Z,4120.00
2023-05-14T05:50:33.538Z,4180.00
2023-05-14T05:51:33.730Z,4140.00
2023-05-14T05:52:33.922Z,4232.00
2023-05-14T05:53:33.931Z,4280.00
2023-05-14T05:54:34.123Z,4464.00
2023-05-14T05:55:34.200Z,4548.00
2023-05-14T05:56:34.469Z,4620.00
2023-05-14T05:57:34.539Z,4872.00
2023-05-14T05:58:35.336Z,4928.00
2023-05-14T05:59:34.827Z,5156.00
2023-05-14T06:00:34.948Z,5396.00
2023-05-14T06:01:35.048Z,5232.00
2023-05-14T06:02:35.186Z,5124.00
2023-05-14T06:03:35.337Z,4996.00
2023-05-14T06:04:35.457Z,4772.00
2023-05-14T06:05:35.780Z,4952.00
2023-05-14T06:06:35.812Z,4892.00
2023-05-14T06:07:35.797Z,4908.00
2023-05-14T06:08:35.971Z,5412.00
2023-05-14T06:09:36.003Z,5112.00
2023-05-14T06:10:36.118Z,5208.00
2023-05-14T06:11:36.289Z,5416.00
2023-05-14T06:12:36.500Z,4680.00
2023-05-14T06:13:36.538Z,4800.00
2023-05-14T06:14:36.633Z,5100.00
2023-05-14T06:15:36.895Z,5636.00
2023-05-14T06:16:37.025Z,5888.00
2023-05-14T06:17:37.105Z,5120.00
2023-05-14T06:18:37.336Z,5968.00
2023-05-14T06:19:37.295Z,6052.00
2023-05-14T06:20:37.548Z,6440.00
2023-05-14T06:21:37.536Z,6436.00
2023-05-14T06:22:37.657Z,6404.00
2023-05-14T06:23:37.787Z,6168.00
2023-05-14T06:24:37.870Z,6496.00
2023-05-14T06:25:38.052Z,7704.00
2023-05-14T06:26:38.123Z,8364.00
2023-05-14T06:27:38.267Z,6984.00
2023-05-14T06:28:38.389Z,8916.00
2023-05-14T06:29:38.526Z,9440.00
2023-05-14T06:30:38.636Z,7228.00
2023-05-14T06:31:38.776Z,6280.00
2023-05-14T06:32:38.887Z,7184.00
2023-05-14T06:33:39.018Z,8972.00
2023-05-14T06:34:39.052Z,5652.00
2023-05-14T06:35:39.157Z,7196.00
2023-05-14T06:36:39.482Z,7320.00
2023-05-14T06:37:39.457Z,8368.00
2023-05-14T06:38:39.608Z,7268.00
2023-05-14T06:39:39.728Z,7040.00
2023-05-14T06:40:39.824Z,6788.00
2023-05-14T06:41:39.979Z,7344.00
2023-05-14T06:42:40.080Z,6960.00
2023-05-14T06:43:40.202Z,6904.00
2023-05-14T06:44:40.308Z,8628.00
2023-05-14T06:45:40.446Z,8356.00
2023-05-14T06:46:40.556Z,7812.00
2023-05-14T06:47:40.715Z,7176.00
2023-05-14T06:48:40.802Z,9820.00
2023-05-14T06:49:40.919Z,8736.00
2023-05-14T06:50:41.015Z,9324.00
2023-05-14T06:51:41.202Z,9320.00
2023-05-14T06:52:41.310Z,9280.00
2023-05-14T06:53:41.441Z,9772.00
2023-05-14T06:54:41.616Z,8604.00
2023-05-14T06:55:41.717Z,8460.00
2023-05-14T06:56:41.844Z,8836.00
2023-05-14T06:57:42.037Z,10980.00
2023-05-14T06:58:42.141Z,8916.00
2023-05-14T06:59:42.204Z,8432.00
2023-05-14T07:00:42.340Z,6812.00
2023-05-14T07:01:42.450Z,7916.00
2023-05-14T07:02:42.717Z,8884.00
2023-05-14T07:03:42.678Z,7448.00
2023-05-14T07:04:42.850Z,7500.00
2023-05-14T07:05:42.914Z,7436.00
2023-05-14T07:06:43.103Z,7508.00
2023-05-14T07:07:43.142Z,8992.00
2023-05-14T07:08:43.288Z,7788.00
2023-05-14T07:09:43.365Z,7916.00
2023-05-14T07:10:43.506Z,7376.00
2023-05-14T07:11:43.631Z,8120.00
2023-05-14T07:12:43.814Z,8536.00
2023-05-14T07:13:43.913Z,8532.00
2023-05-14T07:14:44.017Z,9772.00
2023-05-14T07:15:44.128Z,9840.00
2023-05-14T07:16:44.376Z,8488.00
2023-05-14T07:17:44.424Z,8536.00
2023-05-14T07:18:44.571Z,7388.00
2023-05-14T07:19:44.575Z,7340.00
2023-05-14T07:20:44.703Z,7160.00
2023-05-14T07:21:44.823Z,7292.00
2023-05-14T07:22:44.932Z,7940.00
2023-05-14T07:23:45.066Z,9284.00
2023-05-14T07:24:45.177Z,8960.00
2023-05-14T07:25:45.296Z,8996.00
2023-05-14T07:26:45.442Z,9292.00
2023-05-14T07:27:45.602Z,10300.00
2023-05-14T07:28:45.713Z,9832.00
2023-05-14T07:29:45.766Z,10536.00
2023-05-14T07:30:45.916Z,9824.00
2023-05-14T07:31:46.149Z,11280.00
2023-05-14T07:32:46.204Z,10976.00
2023-05-14T07:33:46.316Z,9936.00
2023-05-14T07:34:46.372Z,10096.00
2023-05-14T07:35:46.504Z,10132.00
2023-05-14T07:36:46.698Z,12768.00
2023-05-14T07:37:46.829Z,12560.00
2023-05-14T07:38:46.912Z,9964.00
2023-05-14T07:39:47.042Z,10588.00
2023-05-14T07:40:47.151Z,10772.00
2023-05-14T07:41:47.301Z,10656.00
2023-05-14T07:42:47.465Z,10944.00
2023-05-14T07:43:47.539Z,10316.00
2023-05-14T07:44:47.668Z,10700.00
2023-05-14T07:45:47.891Z,11160.00
2023-05-14T07:46:47.905Z,10744.00
2023-05-14T07:47:48.179Z,9912.00
2023-05-14T07:48:48.202Z,10616.00
2023-05-14T07:49:48.364Z,10008.00
2023-05-14T07:50:48.433Z,13140.00
2023-05-14T07:51:48.515Z,18432.00
2023-05-14T07:52:48.669Z,13160.00
2023-05-14T07:53:48.774Z,12036.00
2023-05-14T07:54:50.569Z,11584.00
2023-05-14T07:55:49.051Z,10284.00
2023-05-14T07:56:49.204Z,9280.00
2023-05-14T07:57:49.309Z,10404.00
2023-05-14T07:58:49.428Z,11092.00
2023-05-14T07:59:49.541Z,9632.00
2023-05-14T08:00:49.695Z,9524.00
2023-05-14T08:01:49.906Z,9584.00
2023-05-14T08:02:50.179Z,9140.00
2023-05-14T08:03:50.195Z,9116.00
2023-05-14T08:04:50.161Z,9136.00
2023-05-14T08:05:50.273Z,11788.00
2023-05-14T08:06:50.471Z,13624.00
2023-05-14T08:07:50.535Z,11668.00
2023-05-14T08:08:50.655Z,11384.00
2023-05-14T08:09:50.784Z,10476.00
2023-05-14T08:10:50.940Z,11800.00
2023-05-14T08:11:50.974Z,11088.00
2023-05-14T08:12:51.102Z,12544.00
2023-05-14T08:13:51.220Z,11540.00
2023-05-14T08:14:51.368Z,10784.00
2023-05-14T08:15:51.539Z,11640.00
2023-05-14T08:16:51.695Z,13808.00
2023-05-14T08:17:51.866Z,18720.00
2023-05-14T08:18:51.946Z,14072.00
2023-05-14T08:19:52.054Z,13312.00
2023-05-14T08:20:52.189Z,13812.00
2023-05-14T08:21:52.261Z,12976.00
2023-05-14T08:22:52.522Z,19136.00
2023-05-14T08:23:52.505Z,25920.00
2023-05-14T08:24:52.645Z,15168.00
2023-05-14T08:25:52.800Z,28384.00
2023-05-14T08:26:52.882Z,18720.00
2023-05-14T08:27:53.035Z,17408.00
2023-05-14T08:28:53.153Z,21120.00
2023-05-14T08:29:53.283Z,14504.00
2023-05-14T08:30:53.468Z,17696.00
2023-05-14T08:31:53.528Z,17856.00
2023-05-14T08:32:53.679Z,13788.00
2023-05-14T08:33:53.823Z,18432.00
2023-05-14T08:34:53.917Z,22080.00
2023-05-14T08:35:54.014Z,21632.00
2023-05-14T08:36:54.182Z,14900.00
2023-05-14T08:37:54.298Z,14400.00
2023-05-14T08:38:54.445Z,22336.00
2023-05-14T08:39:54.548Z,18400.00
2023-05-14T08:40:54.628Z,17792.00
2023-05-14T08:41:54.784Z,16960.00
2023-05-14T08:42:54.934Z,13360.00
2023-05-14T08:43:55.109Z,12048.00
2023-05-14T08:44:55.160Z,13188.00
2023-05-14T08:45:55.276Z,19904.00
2023-05-14T08:46:55.387Z,13912.00
2023-05-14T08:47:55.787Z,25760.00
2023-05-14T08:48:55.681Z,16224.00
2023-05-14T08:49:55.802Z,14080.00
2023-05-14T08:50:55.936Z,14796.00
2023-05-14T08:51:56.022Z,17024.00
2023-05-14T08:52:56.184Z,18528.00
2023-05-14T08:53:56.296Z,29920.00
2023-05-14T08:54:56.365Z,35680.00
2023-05-14T08:55:56.589Z,42016.00
2023-05-14T08:56:56.772Z,17760.00
2023-05-14T08:57:56.778Z,34016.00
2023-05-14T08:58:56.924Z,13560.00
2023-05-14T08:59:57.052Z,13856.00
2023-05-14T09:00:57.199Z,15000.00
2023-05-14T09:01:57.276Z,13888.00
2023-05-14T09:02:57.464Z,19968.00
2023-05-14T09:03:57.570Z,36288.00
2023-05-14T09:04:57.683Z,22272.00
2023-05-14T09:05:59.973Z,22976.00
2023-05-14T09:06:57.924Z,18464.00
2023-05-14T09:07:58.076Z,21632.00
2023-05-14T09:08:58.207Z,17824.00
2023-05-14T09:09:58.338Z,14400.00
2023-05-14T09:10:58.472Z,18144.00
2023-05-14T09:11:58.540Z,34272.00
2023-05-14T09:12:58.708Z,14272.00
2023-05-14T09:13:58.894Z,19456.00
2023-05-14T09:14:59.013Z,20288.00
2023-05-14T09:15:59.150Z,20672.00
2023-05-14T09:16:59.394Z,37472.00
2023-05-14T09:17:59.373Z,18848.00
2023-05-14T09:18:59.518Z,35584.00
2023-05-14T09:19:59.664Z,21280.00
2023-05-14T09:20:59.733Z,40064.00
2023-05-14T09:21:59.947Z,17536.00
2023-05-14T09:22:59.971Z,18368.00
2023-05-14T09:24:00.161Z,33856.00
2023-05-14T09:25:00.276Z,49440.00
2023-05-14T09:26:00.381Z,50528.00
2023-05-14T09:27:00.510Z,49824.00
2023-05-14T09:28:00.674Z,35072.00
2023-05-14T09:29:00.774Z,20640.00
2023-05-14T09:30:00.892Z,33376.00
2023-05-14T09:31:01.005Z,48672.00
2023-05-14T09:32:01.135Z,49088.00
2023-05-14T09:33:01.299Z,24640.00
2023-05-14T09:34:01.384Z,22304.00
2023-05-14T09:35:01.516Z,51136.00
2023-05-14T09:36:01.655Z,24992.00
2023-05-14T09:37:01.850Z,25504.00
2023-05-14T09:38:01.968Z,52544.00
2023-05-14T09:39:02.027Z,49792.00
2023-05-14T09:40:02.129Z,42944.00
2023-05-14T09:41:02.284Z,51488.00
2023-05-14T09:42:02.370Z,49920.00
2023-05-14T09:43:02.500Z,51840.00
2023-05-14T09:44:04.160Z,52544.00
2023-05-14T09:45:02.752Z,52096.00
2023-05-14T09:46:02.889Z,51360.00
2023-05-14T09:47:03.306Z,50752.00
2023-05-14T09:48:03.370Z,50624.00
2023-05-14T09:49:03.214Z,48832.00
2023-05-14T09:50:03.337Z,49984.00
2023-05-14T09:51:04.749Z,48384.00
2023-05-14T09:52:03.658Z,47040.00
2023-05-14T09:53:03.725Z,45760.00
2023-05-14T09:54:03.901Z,45792.00
2023-05-14T09:55:04.008Z,46944.00
2023-05-14T09:56:04.185Z,46528.00
2023-05-14T09:57:04.288Z,38560.00
2023-05-14T09:58:04.420Z,40096.00
2023-05-14T09:59:04.561Z,37952.00
2023-05-14T10:00:04.670Z,37344.00
2023-05-14T10:01:04.907Z,35520.00
2023-05-14T10:02:04.937Z,30656.00
2023-05-14T10:03:05.156Z,36960.00
2023-05-14T10:04:05.251Z,37568.00
2023-05-14T10:05:05.338Z,41600.00
2023-05-14T10:06:05.488Z,24672.00
2023-05-14T10:07:05.585Z,21600.00
2023-05-14T10:08:05.766Z,21952.00
2023-05-14T10:09:05.850Z,28352.00
2023-05-14T10:10:05.972Z,32512.00
2023-05-14T10:11:06.183Z,25952.00
2023-05-14T10:12:06.221Z,20384.00
2023-05-14T10:13:06.342Z,42176.00
2023-05-14T10:14:06.571Z,20832.00
2023-05-14T10:15:06.598Z,33824.00
2023-05-14T10:16:06.763Z,39200.00
2023-05-14T10:17:06.879Z,21632.00
2023-05-14T10:18:06.989Z,20960.00
2023-05-14T10:19:07.280Z,24416.00
2023-05-14T10:20:07.214Z,18112.00
2023-05-14T10:21:07.328Z,47904.00
2023-05-14T10:22:07.510Z,44288.00
2023-05-14T10:23:07.554Z,25152.00
2023-05-14T10:24:07.700Z,48736.00
2023-05-14T10:25:07.810Z,45472.00
2023-05-14T10:26:07.912Z,43328.00
2023-05-14T10:27:08.091Z,42144.00
2023-05-14T10:28:08.168Z,42176.00
2023-05-14T10:29:08.324Z,43488.00
2023-05-14T10:30:08.435Z,41664.00
2023-05-14T10:31:08.680Z,14296.00
2023-05-14T10:32:08.741Z,11904.00
2023-05-14T10:33:08.963Z,45696.00
2023-05-14T10:34:08.975Z,41664.00
2023-05-14T10:35:09.074Z,28384.00
2023-05-14T10:36:09.202Z,39200.00
2023-05-14T10:37:09.321Z,37760.00
2023-05-14T10:38:09.456Z,39200.00
2023-05-14T10:39:09.548Z,39168.00
2023-05-14T10:40:09.652Z,39936.00
2023-05-14T10:41:09.752Z,40832.00
2023-05-14T10:42:09.887Z,40704.00
2023-05-14T10:43:10.061Z,38784.00
2023-05-14T10:44:10.193Z,38688.00
2023-05-14T10:45:10.269Z,33952.00
2023-05-14T10:46:10.441Z,37728.00
2023-05-14T10:47:10.552Z,39584.00
2023-05-14T10:48:10.684Z,38464.00
2023-05-14T10:49:10.744Z,38560.00
2023-05-14T10:50:10.923Z,25632.00
2023-05-14T10:51:11.091Z,38848.00
2023-05-14T10:52:11.153Z,31392.00
2023-05-14T10:53:11.284Z,36608.00
2023-05-14T10:54:11.404Z,32768.00
2023-05-14T10:55:11.494Z,22624.00
2023-05-14T10:56:11.614Z,34976.00
2023-05-14T10:57:11.690Z,35904.00
2023-05-14T10:58:11.821Z,35840.00
2023-05-14T10:59:11.865Z,36256.00
2023-05-14T11:00:11.995Z,36384.00
2023-05-14T11:01:12.199Z,36576.00
2023-05-14T11:02:12.277Z,36128.00
2023-05-14T11:03:12.607Z,37472.00
2023-05-14T11:04:12.627Z,36416.00
2023-05-14T11:05:12.636Z,36320.00
2023-05-14T11:06:12.746Z,36384.00
2023-05-14T11:07:12.914Z,36320.00
2023-05-14T11:08:13.011Z,36096.00
2023-05-14T11:09:13.115Z,36384.00
2023-05-14T11:10:13.248Z,36896.00
2023-05-14T11:11:13.955Z,37312.00
2023-05-14T11:12:13.473Z,37536.00
2023-05-14T11:13:13.587Z,37120.00
2023-05-14T11:14:13.677Z,35072.00
2023-05-14T11:15:13.783Z,36192.00
2023-05-14T11:16:22.712Z,36288.00
2023-05-14T11:17:15.127Z,37120.00
2023-05-14T11:18:14.379Z,38304.00
2023-05-14T11:19:14.310Z,36032.00
2023-05-14T11:20:14.397Z,33728.00
2023-05-14T11:21:14.522Z,35776.00
2023-05-14T11:22:14.627Z,35808.00
2023-05-14T11:23:14.773Z,34336.00
2023-05-14T11:24:14.835Z,33568.00
2023-05-14T11:25:15.216Z,34368.00
2023-05-14T11:26:15.124Z,33280.00
2023-05-14T11:27:15.185Z,34272.00
2023-05-14T11:28:15.381Z,34080.00
2023-05-14T11:29:15.485Z,33664.00
2023-05-14T11:30:15.649Z,33824.00
2023-05-14T11:31:15.827Z,33728.00
2023-05-14T11:32:15.854Z,30144.00
2023-05-14T11:33:16.122Z,24288.00
2023-05-14T11:34:16.090Z,24224.00
2023-05-14T11:35:16.199Z,20800.00
2023-05-14T11:36:16.404Z,24448.00
2023-05-14T11:37:16.449Z,24416.00
2023-05-14T11:38:16.544Z,24320.00
2023-05-14T11:39:16.761Z,25120.00
2023-05-14T11:40:17.013Z,25088.00
2023-05-14T11:41:17.003Z,21376.00
2023-05-14T11:42:17.193Z,26528.00
2023-05-14T11:43:17.311Z,22560.00
2023-05-14T11:44:17.366Z,26912.00
2023-05-14T11:45:17.505Z,29728.00
2023-05-14T11:46:17.680Z,29472.00
2023-05-14T11:47:17.760Z,24416.00
2023-05-14T11:48:17.883Z,17888.00
2023-05-14T11:49:17.956Z,17664.00
2023-05-14T11:50:18.053Z,15904.00
2023-05-14T11:51:18.200Z,15060.00
2023-05-14T11:52:18.311Z,14480.00
2023-05-14T11:53:18.478Z,16832.00
2023-05-14T11:54:18.513Z,16480.00
2023-05-14T11:55:18.642Z,15712.00
2023-05-14T11:56:18.751Z,15584.00
2023-05-14T11:57:18.846Z,17440.00
2023-05-14T11:58:18.999Z,16000.00
2023-05-14T11:59:20.624Z,16468.00
2023-05-14T12:00:19.320Z,16884.00
2023-05-14T12:01:19.382Z,17920.00
2023-05-14T12:02:19.569Z,17920.00
2023-05-14T12:03:19.840Z,19104.00
2023-05-14T12:04:19.844Z,20416.00
2023-05-14T12:05:19.973Z,20416.00
2023-05-14T12:06:20.028Z,17696.00
2023-05-14T12:07:20.147Z,18624.00
2023-05-14T12:08:20.269Z,22336.00
2023-05-14T12:09:20.411Z,27392.00
2023-05-14T12:10:20.539Z,29536.00
2023-05-14T12:11:20.706Z,23840.00
2023-05-14T12:12:20.750Z,23168.00
2023-05-14T12:13:20.849Z,21184.00
2023-05-14T12:14:20.969Z,19328.00
2023-05-14T12:15:21.088Z,21696.00
2023-05-14T12:16:21.262Z,23552.00
2023-05-14T12:17:21.435Z,18592.00
2023-05-14T12:18:25.073Z,20704.00
2023-05-14T12:19:21.630Z,26432.00
2023-05-14T12:20:21.869Z,28608.00